F/V Atalante — FVRQ — position and weather

sailwx.info

Track history (hours):
 
Tides and Currents Weather Stations Pressure Air Temp Water Temp Dewpoint Dewpoint Depression Visibility Wind Speed Wind Dir Waves Ship Positions

F/V Atalante

Last reported at 2014-Jul-26 02:33 UTC. Time now 2014-Jul-28 14:34 UTC.
Position N 48°08' W 006°55'.

Length 21 m; draft 3.9 m.

Type: . MMSI: 228854000.

Date/timePositionNaut miles runAvg speedWind from/ knotsBaromVisibWave heightAir tempDewpointWater temp
2014-Jul-26 02:33N 48°08' W 006°55'29 9.6
2014-Jul-25 23:34N 48°00' W 006°14'2110.2
2014-Jul-25 21:32N 47°53' W 005°45'11 9.8
2014-Jul-25 20:27N 47°51' W 005°29'84 9.4
2014-Jul-25 11:33N 47°28' W 003°30'10 9.7
2014-Jul-25 10:34N 47°25' W 003°16'10 9.7
2014-Jul-25 09:33N 47°21' W 003°03'1110.1
2014-Jul-25 08:31N 47°18' W 002°49'9 0.9
2014-Jul-24 22:33N 47°20' W 002°36'10 9.4
2014-Jul-24 21:30N 47°17' W 002°50'9 9.0
2014-Jul-24 20:33N 47°16' W 003°03'10 9.8
2014-Jul-24 19:33N 47°18' W 002°48'1110.1
2014-Jul-24 18:30N 47°20' W 002°33'3 1.6
2014-Jul-24 16:33N 47°19' W 002°37'  
Track history (hours):
 
Tides and Currents Weather Stations Pressure Air Temp Water Temp Dewpoint Dewpoint Depression Visibility Wind Speed Wind Dir Waves Ship Positions

F/V Atalante

Last reported at 2014-Jul-26 02:33 UTC. Time now 2014-Jul-28 14:34 UTC.
Position N 48°08' W 006°55'.

Length 21 m; draft 3.9 m.

Type: . MMSI: 228854000.

Date/timePositionNaut miles runAvg speedWind from/ knotsBaromVisibWave heightAir tempDewpointWater temp
2014-Jul-26 02:33N 48°08' W 006°55'29 9.6
2014-Jul-25 23:34N 48°00' W 006°14'2110.2
2014-Jul-25 21:32N 47°53' W 005°45'11 9.8
2014-Jul-25 20:27N 47°51' W 005°29'84 9.4
2014-Jul-25 11:33N 47°28' W 003°30'10 9.7
2014-Jul-25 10:34N 47°25' W 003°16'10 9.7
2014-Jul-25 09:33N 47°21' W 003°03'1110.1
2014-Jul-25 08:31N 47°18' W 002°49'9 0.9
2014-Jul-24 22:33N 47°20' W 002°36'10 9.4
2014-Jul-24 21:30N 47°17' W 002°50'9 9.0
2014-Jul-24 20:33N 47°16' W 003°03'10 9.8
2014-Jul-24 19:33N 47°18' W 002°48'1110.1
2014-Jul-24 18:30N 47°20' W 002°33'3 1.6
2014-Jul-24 16:33N 47°19' W 002°37'  

Dump ship's entire track history